TFM - Tactical Decision Aid (Experimental) INFO Settings
ID: Runway Winds: CIG/VIS Threshold: METAR Board: Map:

Kclt - Charlotte-Douglas Intl

Updated at: 1617 UTC 29 Jun 2016
Latest TAF at: 1440 UTC 29 Jun 2016

TAF Board

Time1552Z29/17Z29/18Z29/19Z29/20Z29/21Z29/22Z29/23Z30/00Z30/01Z30/02Z30/03Z30/04Z30/05Z
TypeOBSPRVLPRVLPRVLPRVLPRVL
  [TEMP]  
PRVL
  [TEMP]  
PRVL
  [TEMP]  
PRVL
  [TEMP]  
PRVLPRVLPRVLPRVLPRVL
VIS10>6>6>6>6>6
  [4]  
>6
  [4]  
>6
  [4]  
>6
  [4]  
>6>6>6>6>6
CIG----60606060
  [40]  
60
  [40]  
60
  [40]  
60
  [40]  
6080808080
CoverFEWFEWBKNBKNBKNBKN
  [BKN]  
BKN
  [BKN]  
BKN
  [BKN]  
BKN
  [BKN]  
BKNBKNBKNBKNBKN
FltCatVFRVFRVFRVFRVFRVFR
  [MVFR]  
VFR
  [MVFR]  
VFR
  [MVFR]  
VFR
  [MVFR]  
VFRVFRVFRVFRVFR
WX----VCSHVCSHVCSHVCSH
  [TSRA]  
VCSH
  [TSRA]  
VCSH
  [TSRA]  
VCSH
  [TSRA]  
VCSH--------
WDirVRB30140140220220
[220]
220
[220]
220
[220]
220
[220]
220190190190190
WSpd044477
  [7]  
7
  [7]  
7
  [7]  
7
  [7]  
74444
WGst------------
  [--]  
--
  [--]  
--
  [--]  
--
  [--]  
----------
TAF
KCLT 291440Z 2915/3012 03004KT P6SM FEW050
  FM291800 14004KT P6SM VCSH BKN060
  FM292000 22007KT P6SM VCSH BKN060
  TEMPO 2921/3001 4SM TSRA BKN040CB
  FM300200 19004KT P6SM BKN080
  FM300700 00000KT P6SM SCT250


METAR
KCLT 291552Z 00000KT 10SM FEW250 30/17 A2999 RMK AO2 SLP147 T03000167
KCLT 291452Z VRB04KT 10SM FEW250 30/18 A3000 RMK AO2 SLP148 T03000178 51005

TAF/METAR Board Legend

Potential Impact
  None Marginal Slight Moderate High
Visibility (sm) > ≤X≤ <
Ceiling (100 ft) > ≤X≤ <
Wind Speed (kt) <10 10≤X<20 20≤X<30 ≥30
Wind Gust (kt) <15 15≤X<25 25≤X<35 ≥35
Weather No Wx Reported VCTS -TS,-FZRA TS,FZRA +TS,+FZRA